sensor_id;sensor_type;location;lat;lon;timestamp;P1;durP1;ratioP1;P2;durP2;ratioP2
20110;SDS011;10216;42.658;23.248;2022-12-18T00:00:41;7.90;;;7.10;;
20110;SDS011;10216;42.658;23.248;2022-12-18T00:03:06;8.93;;;7.37;;
20110;SDS011;10216;42.658;23.248;2022-12-18T00:05:31;8.30;;;6.93;;
20110;SDS011;10216;42.658;23.248;2022-12-18T00:07:56;6.70;;;6.00;;
20110;SDS011;10216;42.658;23.248;2022-12-18T00:10:22;7.00;;;6.30;;
20110;SDS011;10216;42.658;23.248;2022-12-18T00:12:47;7.90;;;6.70;;
20110;SDS011;10216;42.658;23.248;2022-12-18T00:15:12;6.70;;;6.00;;
20110;SDS011;10216;42.658;23.248;2022-12-18T00:17:37;7.47;;;6.47;;
20110;SDS011;10216;42.658;23.248;2022-12-18T00:20:03;7.10;;;6.40;;
20110;SDS011;10216;42.658;23.248;2022-12-18T00:22:28;7.20;;;6.50;;
20110;SDS011;10216;42.658;23.248;2022-12-18T00:24:53;6.87;;;6.17;;
20110;SDS011;10216;42.658;23.248;2022-12-18T00:27:19;6.97;;;6.20;;
20110;SDS011;10216;42.658;23.248;2022-12-18T00:29:44;7.33;;;6.33;;
20110;SDS011;10216;42.658;23.248;2022-12-18T00:32:09;6.90;;;6.20;;
20110;SDS011;10216;42.658;23.248;2022-12-18T00:34:34;6.77;;;6.03;;
20110;SDS011;10216;42.658;23.248;2022-12-18T00:37:00;6.70;;;6.03;;
20110;SDS011;10216;42.658;23.248;2022-12-18T00:39:25;6.80;;;6.10;;
20110;SDS011;10216;42.658;23.248;2022-12-18T00:41:50;6.53;;;5.93;;
20110;SDS011;10216;42.658;23.248;2022-12-18T00:44:34;8.80;;;7.27;;
20110;SDS011;10216;42.658;23.248;2022-12-18T00:46:59;6.97;;;6.27;;
20110;SDS011;10216;42.658;23.248;2022-12-18T00:49:24;8.60;;;7.33;;
20110;SDS011;10216;42.658;23.248;2022-12-18T00:51:50;10.43;;;8.07;;
20110;SDS011;10216;42.658;23.248;2022-12-18T00:54:15;9.03;;;7.50;;
20110;SDS011;10216;42.658;23.248;2022-12-18T00:56:41;9.63;;;7.77;;
20110;SDS011;10216;42.658;23.248;2022-12-18T00:59:06;8.00;;;7.20;;
20110;SDS011;10216;42.658;23.248;2022-12-18T01:01:32;9.57;;;7.97;;
20110;SDS011;10216;42.658;23.248;2022-12-18T01:03:59;9.90;;;8.23;;
20110;SDS011;10216;42.658;23.248;2022-12-18T01:06:24;8.33;;;7.43;;
20110;SDS011;10216;42.658;23.248;2022-12-18T01:08:49;9.43;;;8.53;;
20110;SDS011;10216;42.658;23.248;2022-12-18T01:11:16;9.33;;;8.23;;
20110;SDS011;10216;42.658;23.248;2022-12-18T01:13:41;9.10;;;8.20;;
20110;SDS011;10216;42.658;23.248;2022-12-18T01:16:07;8.90;;;7.93;;
20110;SDS011;10216;42.658;23.248;2022-12-18T01:18:32;8.57;;;7.67;;
20110;SDS011;10216;42.658;23.248;2022-12-18T01:20:57;8.67;;;7.77;;
20110;SDS011;10216;42.658;23.248;2022-12-18T01:23:23;9.53;;;8.10;;
20110;SDS011;10216;42.658;23.248;2022-12-18T01:25:48;11.37;;;8.23;;
20110;SDS011;10216;42.658;23.248;2022-12-18T01:28:13;8.90;;;7.87;;
20110;SDS011;10216;42.658;23.248;2022-12-18T01:30:39;9.10;;;7.90;;
20110;SDS011;10216;42.658;23.248;2022-12-18T01:33:04;9.57;;;7.77;;
20110;SDS011;10216;42.658;23.248;2022-12-18T01:35:30;9.13;;;8.03;;
20110;SDS011;10216;42.658;23.248;2022-12-18T01:37:57;7.93;;;6.83;;
20110;SDS011;10216;42.658;23.248;2022-12-18T01:40:22;9.00;;;7.50;;
20110;SDS011;10216;42.658;23.248;2022-12-18T01:42:51;8.73;;;7.67;;
20110;SDS011;10216;42.658;23.248;2022-12-18T01:45:25;8.80;;;7.90;;
20110;SDS011;10216;42.658;23.248;2022-12-18T01:47:52;8.83;;;7.87;;
20110;SDS011;10216;42.658;23.248;2022-12-18T01:50:25;8.73;;;7.83;;
20110;SDS011;10216;42.658;23.248;2022-12-18T01:52:55;9.53;;;7.17;;
20110;SDS011;10216;42.658;23.248;2022-12-18T01:55:22;7.90;;;7.00;;
20110;SDS011;10216;42.658;23.248;2022-12-18T01:57:49;7.87;;;6.90;;
20110;SDS011;10216;42.658;23.248;2022-12-18T02:00:17;7.30;;;6.60;;
20110;SDS011;10216;42.658;23.248;2022-12-18T02:02:44;6.97;;;6.17;;
20110;SDS011;10216;42.658;23.248;2022-12-18T02:05:10;7.30;;;6.20;;
20110;SDS011;10216;42.658;23.248;2022-12-18T02:13:01;8.20;;;5.93;;
20110;SDS011;10216;42.658;23.248;2022-12-18T02:20:37;6.90;;;5.63;;
20110;SDS011;10216;42.658;23.248;2022-12-18T02:26:02;6.73;;;6.03;;
20110;SDS011;10216;42.658;23.248;2022-12-18T02:28:32;6.40;;;5.80;;
20110;SDS011;10216;42.658;23.248;2022-12-18T02:30:59;8.17;;;6.43;;
20110;SDS011;10216;42.658;23.248;2022-12-18T02:33:26;9.43;;;6.23;;
20110;SDS011;10216;42.658;23.248;2022-12-18T02:35:52;7.40;;;6.07;;
20110;SDS011;10216;42.658;23.248;2022-12-18T02:38:18;6.77;;;6.07;;
20110;SDS011;10216;42.658;23.248;2022-12-18T02:40:44;7.70;;;6.70;;
20110;SDS011;10216;42.658;23.248;2022-12-18T02:43:13;7.10;;;6.40;;
20110;SDS011;10216;42.658;23.248;2022-12-18T02:45:46;7.30;;;6.00;;
20110;SDS011;10216;42.658;23.248;2022-12-18T02:48:11;7.07;;;6.27;;
20110;SDS011;10216;42.658;23.248;2022-12-18T02:50:42;9.00;;;6.30;;
20110;SDS011;10216;42.658;23.248;2022-12-18T02:53:13;7.80;;;6.80;;
20110;SDS011;10216;42.658;23.248;2022-12-18T02:55:57;8.40;;;6.60;;
20110;SDS011;10216;42.658;23.248;2022-12-18T03:03:51;6.10;;;5.50;;
20110;SDS011;10216;42.658;23.248;2022-12-18T03:06:23;7.50;;;6.00;;
20110;SDS011;10216;42.658;23.248;2022-12-18T03:08:46;5.83;;;5.23;;
20110;SDS011;10216;42.658;23.248;2022-12-18T03:11:13;7.77;;;5.60;;
20110;SDS011;10216;42.658;23.248;2022-12-18T03:13:41;6.63;;;5.37;;
20110;SDS011;10216;42.658;23.248;2022-12-18T03:16:10;6.10;;;5.40;;
20110;SDS011;10216;42.658;23.248;2022-12-18T03:18:49;6.37;;;5.30;;
20110;SDS011;10216;42.658;23.248;2022-12-18T03:21:16;6.90;;;5.50;;
20110;SDS011;10216;42.658;23.248;2022-12-18T03:23:44;7.63;;;5.50;;
20110;SDS011;10216;42.658;23.248;2022-12-18T03:26:10;6.80;;;5.17;;
20110;SDS011;10216;42.658;23.248;2022-12-18T03:28:38;6.40;;;5.67;;
20110;SDS011;10216;42.658;23.248;2022-12-18T03:31:04;6.00;;;5.40;;
20110;SDS011;10216;42.658;23.248;2022-12-18T03:36:01;6.17;;;5.40;;
20110;SDS011;10216;42.658;23.248;2022-12-18T03:38:26;6.43;;;5.77;;
20110;SDS011;10216;42.658;23.248;2022-12-18T03:43:42;7.30;;;6.00;;
20110;SDS011;10216;42.658;23.248;2022-12-18T03:46:14;8.47;;;5.37;;
20110;SDS011;10216;42.658;23.248;2022-12-18T03:48:42;6.43;;;5.57;;
20110;SDS011;10216;42.658;23.248;2022-12-18T03:51:10;6.43;;;5.47;;
20110;SDS011;10216;42.658;23.248;2022-12-18T03:53:38;6.07;;;5.47;;
20110;SDS011;10216;42.658;23.248;2022-12-18T03:56:06;6.20;;;5.33;;
20110;SDS011;10216;42.658;23.248;2022-12-18T03:58:32;6.87;;;5.00;;
20110;SDS011;10216;42.658;23.248;2022-12-18T04:01:00;9.33;;;5.57;;
20110;SDS011;10216;42.658;23.248;2022-12-18T04:03:26;6.30;;;5.17;;
20110;SDS011;10216;42.658;23.248;2022-12-18T04:05:54;6.50;;;5.10;;
20110;SDS011;10216;42.658;23.248;2022-12-18T04:08:19;6.17;;;5.03;;
20110;SDS011;10216;42.658;23.248;2022-12-18T04:10:45;6.67;;;5.50;;
20110;SDS011;10216;42.658;23.248;2022-12-18T04:13:10;6.20;;;5.27;;
20110;SDS011;10216;42.658;23.248;2022-12-18T04:15:36;6.53;;;5.13;;
20110;SDS011;10216;42.658;23.248;2022-12-18T04:18:02;6.13;;;5.50;;
20110;SDS011;10216;42.658;23.248;2022-12-18T04:20:27;6.57;;;5.23;;
20110;SDS011;10216;42.658;23.248;2022-12-18T04:22:52;6.00;;;5.00;;
20110;SDS011;10216;42.658;23.248;2022-12-18T04:25:18;7.73;;;5.17;;
20110;SDS011;10216;42.658;23.248;2022-12-18T04:27:43;9.27;;;5.47;;
20110;SDS011;10216;42.658;23.248;2022-12-18T04:30:08;6.03;;;5.17;;
20110;SDS011;10216;42.658;23.248;2022-12-18T04:32:34;8.30;;;5.60;;
20110;SDS011;10216;42.658;23.248;2022-12-18T04:34:59;6.67;;;5.70;;
20110;SDS011;10216;42.658;23.248;2022-12-18T04:37:24;8.03;;;5.80;;
20110;SDS011;10216;42.658;23.248;2022-12-18T04:39:50;6.93;;;5.80;;
20110;SDS011;10216;42.658;23.248;2022-12-18T04:42:15;7.20;;;5.17;;
20110;SDS011;10216;42.658;23.248;2022-12-18T04:44:40;7.60;;;6.27;;
20110;SDS011;10216;42.658;23.248;2022-12-18T04:47:05;9.03;;;6.00;;
20110;SDS011;10216;42.658;23.248;2022-12-18T04:49:31;8.73;;;6.27;;
20110;SDS011;10216;42.658;23.248;2022-12-18T04:51:56;8.83;;;6.07;;
20110;SDS011;10216;42.658;23.248;2022-12-18T04:54:21;7.33;;;6.17;;
20110;SDS011;10216;42.658;23.248;2022-12-18T04:56:47;6.10;;;5.43;;
20110;SDS011;10216;42.658;23.248;2022-12-18T04:59:12;7.17;;;5.80;;
20110;SDS011;10216;42.658;23.248;2022-12-18T05:01:37;11.10;;;6.83;;
20110;SDS011;10216;42.658;23.248;2022-12-18T05:04:03;7.50;;;6.33;;
20110;SDS011;10216;42.658;23.248;2022-12-18T05:06:28;7.50;;;5.80;;
20110;SDS011;10216;42.658;23.248;2022-12-18T05:08:53;7.23;;;6.20;;
20110;SDS011;10216;42.658;23.248;2022-12-18T05:11:18;7.30;;;6.07;;
20110;SDS011;10216;42.658;23.248;2022-12-18T05:13:44;8.40;;;6.53;;
20110;SDS011;10216;42.658;23.248;2022-12-18T05:16:10;7.33;;;6.00;;
20110;SDS011;10216;42.658;23.248;2022-12-18T05:18:35;7.57;;;6.00;;
20110;SDS011;10216;42.658;23.248;2022-12-18T05:21:00;6.73;;;5.20;;
20110;SDS011;10216;42.658;23.248;2022-12-18T05:23:26;8.27;;;6.30;;
20110;SDS011;10216;42.658;23.248;2022-12-18T05:25:55;8.37;;;6.60;;
20110;SDS011;10216;42.658;23.248;2022-12-18T05:28:21;6.97;;;5.63;;
20110;SDS011;10216;42.658;23.248;2022-12-18T05:30:48;6.60;;;5.60;;
20110;SDS011;10216;42.658;23.248;2022-12-18T05:33:14;9.07;;;6.53;;
20110;SDS011;10216;42.658;23.248;2022-12-18T05:35:39;7.27;;;5.87;;
20110;SDS011;10216;42.658;23.248;2022-12-18T05:38:04;7.47;;;6.47;;
20110;SDS011;10216;42.658;23.248;2022-12-18T05:40:30;7.60;;;6.27;;
20110;SDS011;10216;42.658;23.248;2022-12-18T05:42:55;9.63;;;5.90;;
20110;SDS011;10216;42.658;23.248;2022-12-18T05:45:20;7.23;;;5.87;;
20110;SDS011;10216;42.658;23.248;2022-12-18T05:47:46;8.10;;;6.27;;
20110;SDS011;10216;42.658;23.248;2022-12-18T05:50:11;8.70;;;6.53;;
20110;SDS011;10216;42.658;23.248;2022-12-18T05:52:37;10.50;;;7.13;;
20110;SDS011;10216;42.658;23.248;2022-12-18T05:55:05;8.37;;;6.63;;
20110;SDS011;10216;42.658;23.248;2022-12-18T05:57:30;8.60;;;6.40;;
20110;SDS011;10216;42.658;23.248;2022-12-18T05:59:55;9.53;;;6.50;;
20110;SDS011;10216;42.658;23.248;2022-12-18T06:02:21;8.30;;;6.20;;
20110;SDS011;10216;42.658;23.248;2022-12-18T06:04:46;8.27;;;7.13;;
20110;SDS011;10216;42.658;23.248;2022-12-18T06:07:12;9.70;;;7.43;;
20110;SDS011;10216;42.658;23.248;2022-12-18T06:09:37;9.17;;;7.60;;
20110;SDS011;10216;42.658;23.248;2022-12-18T06:12:02;8.43;;;7.27;;
20110;SDS011;10216;42.658;23.248;2022-12-18T06:14:27;10.50;;;8.07;;
20110;SDS011;10216;42.658;23.248;2022-12-18T06:16:53;8.80;;;7.20;;
20110;SDS011;10216;42.658;23.248;2022-12-18T06:19:18;8.93;;;7.37;;
20110;SDS011;10216;42.658;23.248;2022-12-18T06:21:45;9.37;;;7.60;;
20110;SDS011;10216;42.658;23.248;2022-12-18T06:24:11;9.90;;;7.63;;
20110;SDS011;10216;42.658;23.248;2022-12-18T06:26:37;10.97;;;8.93;;
20110;SDS011;10216;42.658;23.248;2022-12-18T06:29:03;9.87;;;7.97;;
20110;SDS011;10216;42.658;23.248;2022-12-18T06:31:28;10.63;;;8.00;;
20110;SDS011;10216;42.658;23.248;2022-12-18T06:33:53;9.43;;;7.83;;
20110;SDS011;10216;42.658;23.248;2022-12-18T06:36:19;11.93;;;8.60;;
20110;SDS011;10216;42.658;23.248;2022-12-18T06:38:45;13.13;;;8.90;;
20110;SDS011;10216;42.658;23.248;2022-12-18T06:41:11;12.63;;;8.33;;
20110;SDS011;10216;42.658;23.248;2022-12-18T06:43:36;10.60;;;8.77;;
20110;SDS011;10216;42.658;23.248;2022-12-18T06:46:02;12.20;;;8.80;;
20110;SDS011;10216;42.658;23.248;2022-12-18T06:48:27;13.80;;;8.90;;
20110;SDS011;10216;42.658;23.248;2022-12-18T06:50:53;10.70;;;8.33;;
20110;SDS011;10216;42.658;23.248;2022-12-18T06:53:18;11.23;;;9.03;;
20110;SDS011;10216;42.658;23.248;2022-12-18T06:55:43;12.03;;;9.23;;
20110;SDS011;10216;42.658;23.248;2022-12-18T06:58:08;10.17;;;8.47;;
20110;SDS011;10216;42.658;23.248;2022-12-18T07:00:34;10.87;;;7.83;;
20110;SDS011;10216;42.658;23.248;2022-12-18T07:02:59;10.83;;;8.27;;
20110;SDS011;10216;42.658;23.248;2022-12-18T07:05:24;10.50;;;7.60;;
20110;SDS011;10216;42.658;23.248;2022-12-18T07:07:52;10.13;;;7.83;;
20110;SDS011;10216;42.658;23.248;2022-12-18T07:10:17;9.33;;;7.60;;
20110;SDS011;10216;42.658;23.248;2022-12-18T07:12:43;10.23;;;8.10;;
20110;SDS011;10216;42.658;23.248;2022-12-18T07:15:08;10.27;;;7.97;;
20110;SDS011;10216;42.658;23.248;2022-12-18T07:17:33;11.70;;;8.30;;
20110;SDS011;10216;42.658;23.248;2022-12-18T07:19:58;11.03;;;8.37;;
20110;SDS011;10216;42.658;23.248;2022-12-18T07:22:24;10.13;;;8.03;;
20110;SDS011;10216;42.658;23.248;2022-12-18T07:24:50;11.03;;;8.43;;
20110;SDS011;10216;42.658;23.248;2022-12-18T07:27:15;11.00;;;8.00;;
20110;SDS011;10216;42.658;23.248;2022-12-18T07:29:40;9.60;;;7.80;;
20110;SDS011;10216;42.658;23.248;2022-12-18T07:32:05;10.00;;;7.73;;
20110;SDS011;10216;42.658;23.248;2022-12-18T07:34:32;12.70;;;8.70;;
20110;SDS011;10216;42.658;23.248;2022-12-18T07:36:57;11.47;;;8.33;;
20110;SDS011;10216;42.658;23.248;2022-12-18T07:39:22;10.40;;;7.70;;
20110;SDS011;10216;42.658;23.248;2022-12-18T07:41:48;11.07;;;8.23;;
20110;SDS011;10216;42.658;23.248;2022-12-18T07:44:33;11.37;;;8.37;;
20110;SDS011;10216;42.658;23.248;2022-12-18T07:46:58;11.17;;;8.53;;
20110;SDS011;10216;42.658;23.248;2022-12-18T07:49:23;12.23;;;8.17;;
20110;SDS011;10216;42.658;23.248;2022-12-18T07:51:48;10.60;;;7.90;;
20110;SDS011;10216;42.658;23.248;2022-12-18T07:54:14;11.60;;;8.53;;
20110;SDS011;10216;42.658;23.248;2022-12-18T07:56:39;10.73;;;8.43;;
20110;SDS011;10216;42.658;23.248;2022-12-18T07:59:04;13.67;;;9.50;;
20110;SDS011;10216;42.658;23.248;2022-12-18T08:01:30;14.93;;;10.33;;
20110;SDS011;10216;42.658;23.248;2022-12-18T08:03:55;11.70;;;8.77;;
20110;SDS011;10216;42.658;23.248;2022-12-18T08:06:20;10.73;;;8.33;;
20110;SDS011;10216;42.658;23.248;2022-12-18T08:08:45;12.87;;;9.17;;
20110;SDS011;10216;42.658;23.248;2022-12-18T08:11:11;11.73;;;8.93;;
20110;SDS011;10216;42.658;23.248;2022-12-18T08:13:36;13.80;;;10.20;;
20110;SDS011;10216;42.658;23.248;2022-12-18T08:16:02;14.13;;;10.20;;
20110;SDS011;10216;42.658;23.248;2022-12-18T08:18:28;13.90;;;10.17;;
20110;SDS011;10216;42.658;23.248;2022-12-18T08:20:53;12.97;;;9.20;;
20110;SDS011;10216;42.658;23.248;2022-12-18T08:23:19;12.00;;;8.93;;
20110;SDS011;10216;42.658;23.248;2022-12-18T08:25:44;12.07;;;9.40;;
20110;SDS011;10216;42.658;23.248;2022-12-18T08:28:09;15.77;;;10.00;;
20110;SDS011;10216;42.658;23.248;2022-12-18T08:30:35;13.10;;;10.03;;
20110;SDS011;10216;42.658;23.248;2022-12-18T08:33:00;19.30;;;15.23;;
20110;SDS011;10216;42.658;23.248;2022-12-18T08:35:25;16.90;;;13.27;;
20110;SDS011;10216;42.658;23.248;2022-12-18T08:37:51;25.13;;;18.73;;
20110;SDS011;10216;42.658;23.248;2022-12-18T08:40:17;20.83;;;15.77;;
20110;SDS011;10216;42.658;23.248;2022-12-18T08:42:42;22.27;;;16.73;;
20110;SDS011;10216;42.658;23.248;2022-12-18T08:45:26;20.63;;;16.07;;
20110;SDS011;10216;42.658;23.248;2022-12-18T08:47:51;24.30;;;17.07;;
20110;SDS011;10216;42.658;23.248;2022-12-18T08:50:16;30.13;;;22.57;;
20110;SDS011;10216;42.658;23.248;2022-12-18T08:52:44;24.63;;;16.57;;
20110;SDS011;10216;42.658;23.248;2022-12-18T08:55:09;27.30;;;19.33;;
20110;SDS011;10216;42.658;23.248;2022-12-18T08:57:35;25.27;;;18.83;;
20110;SDS011;10216;42.658;23.248;2022-12-18T09:00:00;27.37;;;19.07;;
20110;SDS011;10216;42.658;23.248;2022-12-18T09:02:25;27.03;;;18.43;;
20110;SDS011;10216;42.658;23.248;2022-12-18T09:04:50;25.43;;;17.87;;
20110;SDS011;10216;42.658;23.248;2022-12-18T09:07:16;27.60;;;18.80;;
20110;SDS011;10216;42.658;23.248;2022-12-18T09:09:41;23.80;;;16.83;;
20110;SDS011;10216;42.658;23.248;2022-12-18T09:12:06;24.93;;;17.73;;
20110;SDS011;10216;42.658;23.248;2022-12-18T09:14:34;24.23;;;17.70;;
20110;SDS011;10216;42.658;23.248;2022-12-18T09:16:59;27.47;;;19.17;;
20110;SDS011;10216;42.658;23.248;2022-12-18T09:19:24;26.40;;;19.63;;
20110;SDS011;10216;42.658;23.248;2022-12-18T09:21:49;25.13;;;18.33;;
20110;SDS011;10216;42.658;23.248;2022-12-18T09:24:15;25.07;;;18.40;;
20110;SDS011;10216;42.658;23.248;2022-12-18T09:26:40;24.60;;;17.73;;
20110;SDS011;10216;42.658;23.248;2022-12-18T09:29:05;24.80;;;18.07;;
20110;SDS011;10216;42.658;23.248;2022-12-18T09:31:32;23.80;;;17.07;;
20110;SDS011;10216;42.658;23.248;2022-12-18T09:33:57;23.73;;;17.40;;
20110;SDS011;10216;42.658;23.248;2022-12-18T09:36:23;23.03;;;17.03;;
20110;SDS011;10216;42.658;23.248;2022-12-18T09:38:48;25.63;;;17.37;;
20110;SDS011;10216;42.658;23.248;2022-12-18T09:43:49;22.00;;;17.13;;
20110;SDS011;10216;42.658;23.248;2022-12-18T09:46:28;25.57;;;17.33;;
20110;SDS011;10216;42.658;23.248;2022-12-18T09:48:56;27.33;;;18.33;;
20110;SDS011;10216;42.658;23.248;2022-12-18T09:51:25;23.33;;;17.20;;
20110;SDS011;10216;42.658;23.248;2022-12-18T09:53:53;22.97;;;16.83;;
20110;SDS011;10216;42.658;23.248;2022-12-18T09:56:21;20.57;;;16.53;;
20110;SDS011;10216;42.658;23.248;2022-12-18T09:58:53;22.00;;;16.93;;
20110;SDS011;10216;42.658;23.248;2022-12-18T10:01:23;21.43;;;15.67;;
20110;SDS011;10216;42.658;23.248;2022-12-18T10:03:49;21.07;;;15.27;;
20110;SDS011;10216;42.658;23.248;2022-12-18T10:11:28;23.13;;;16.50;;
20110;SDS011;10216;42.658;23.248;2022-12-18T10:14:00;22.33;;;16.37;;
20110;SDS011;10216;42.658;23.248;2022-12-18T10:19:01;19.57;;;14.37;;
20110;SDS011;10216;42.658;23.248;2022-12-18T10:21:36;20.30;;;15.40;;
20110;SDS011;10216;42.658;23.248;2022-12-18T10:24:24;21.17;;;14.50;;
20110;SDS011;10216;42.658;23.248;2022-12-18T10:26:52;22.17;;;17.10;;
20110;SDS011;10216;42.658;23.248;2022-12-18T10:29:17;20.83;;;16.03;;
20110;SDS011;10216;42.658;23.248;2022-12-18T10:31:43;21.50;;;15.50;;
20110;SDS011;10216;42.658;23.248;2022-12-18T10:34:09;23.50;;;15.63;;
20110;SDS011;10216;42.658;23.248;2022-12-18T10:36:35;22.57;;;14.80;;
20110;SDS011;10216;42.658;23.248;2022-12-18T10:39:13;19.17;;;13.37;;
20110;SDS011;10216;42.658;23.248;2022-12-18T10:41:39;18.07;;;13.90;;
20110;SDS011;10216;42.658;23.248;2022-12-18T10:46:35;20.27;;;13.87;;
20110;SDS011;10216;42.658;23.248;2022-12-18T10:49:01;19.53;;;14.73;;
20110;SDS011;10216;42.658;23.248;2022-12-18T10:51:27;19.63;;;13.90;;
20110;SDS011;10216;42.658;23.248;2022-12-18T10:54:35;17.93;;;13.53;;
20110;SDS011;10216;42.658;23.248;2022-12-18T10:56:41;21.47;;;14.70;;
20110;SDS011;10216;42.658;23.248;2022-12-18T10:59:08;16.93;;;12.37;;
20110;SDS011;10216;42.658;23.248;2022-12-18T11:01:50;16.60;;;11.97;;
20110;SDS011;10216;42.658;23.248;2022-12-18T11:04:16;18.83;;;14.17;;
20110;SDS011;10216;42.658;23.248;2022-12-18T11:06:59;16.77;;;12.00;;
20110;SDS011;10216;42.658;23.248;2022-12-18T11:09:31;19.47;;;12.87;;
20110;SDS011;10216;42.658;23.248;2022-12-18T11:11:58;19.27;;;13.50;;
20110;SDS011;10216;42.658;23.248;2022-12-18T11:14:34;19.33;;;12.90;;
20110;SDS011;10216;42.658;23.248;2022-12-18T11:16:59;17.77;;;12.50;;
20110;SDS011;10216;42.658;23.248;2022-12-18T11:21:50;19.30;;;11.80;;
20110;SDS011;10216;42.658;23.248;2022-12-18T11:26:47;15.40;;;10.67;;
20110;SDS011;10216;42.658;23.248;2022-12-18T11:29:34;16.10;;;11.20;;
20110;SDS011;10216;42.658;23.248;2022-12-18T11:34:45;15.90;;;11.43;;
20110;SDS011;10216;42.658;23.248;2022-12-18T11:37:12;14.57;;;10.70;;
20110;SDS011;10216;42.658;23.248;2022-12-18T11:39:59;12.93;;;9.67;;
20110;SDS011;10216;42.658;23.248;2022-12-18T11:42:27;14.07;;;10.23;;
20110;SDS011;10216;42.658;23.248;2022-12-18T11:44:59;17.30;;;11.27;;
20110;SDS011;10216;42.658;23.248;2022-12-18T11:47:35;16.17;;;11.17;;
20110;SDS011;10216;42.658;23.248;2022-12-18T11:50:05;16.40;;;11.97;;
20110;SDS011;10216;42.658;23.248;2022-12-18T11:52:36;16.33;;;11.30;;
20110;SDS011;10216;42.658;23.248;2022-12-18T11:55:16;18.60;;;11.70;;
20110;SDS011;10216;42.658;23.248;2022-12-18T12:00:27;16.67;;;11.80;;
20110;SDS011;10216;42.658;23.248;2022-12-18T12:05:29;16.63;;;11.63;;
20110;SDS011;10216;42.658;23.248;2022-12-18T12:16:00;16.67;;;10.83;;
20110;SDS011;10216;42.658;23.248;2022-12-18T12:21:42;16.30;;;11.70;;
20110;SDS011;10216;42.658;23.248;2022-12-18T12:31:57;15.20;;;10.47;;
20110;SDS011;10216;42.658;23.248;2022-12-18T12:39:33;21.83;;;13.23;;
20110;SDS011;10216;42.658;23.248;2022-12-18T12:42:00;17.17;;;12.40;;
20110;SDS011;10216;42.658;23.248;2022-12-18T12:44:46;20.97;;;13.03;;
20110;SDS011;10216;42.658;23.248;2022-12-18T12:47:14;17.83;;;12.87;;
20110;SDS011;10216;42.658;23.248;2022-12-18T12:49:40;17.30;;;11.70;;
20110;SDS011;10216;42.658;23.248;2022-12-18T12:52:07;19.10;;;13.50;;
20110;SDS011;10216;42.658;23.248;2022-12-18T12:54:36;17.23;;;12.50;;
20110;SDS011;10216;42.658;23.248;2022-12-18T12:57:15;18.37;;;12.93;;
20110;SDS011;10216;42.658;23.248;2022-12-18T13:07:26;16.60;;;12.30;;
20110;SDS011;10216;42.658;23.248;2022-12-18T13:12:54;18.13;;;12.43;;
20110;SDS011;10216;42.658;23.248;2022-12-18T13:15:23;17.80;;;12.13;;
20110;SDS011;10216;42.658;23.248;2022-12-18T13:18:02;18.60;;;12.63;;
20110;SDS011;10216;42.658;23.248;2022-12-18T13:20:32;17.67;;;12.00;;
20110;SDS011;10216;42.658;23.248;2022-12-18T13:22:58;18.90;;;12.73;;
20110;SDS011;10216;42.658;23.248;2022-12-18T13:25:31;18.70;;;13.07;;
20110;SDS011;10216;42.658;23.248;2022-12-18T13:45:45;17.13;;;12.53;;
20110;SDS011;10216;42.658;23.248;2022-12-18T13:48:22;19.77;;;13.47;;
20110;SDS011;10216;42.658;23.248;2022-12-18T13:50:59;21.40;;;14.37;;
20110;SDS011;10216;42.658;23.248;2022-12-18T13:53:26;26.90;;;16.13;;
20110;SDS011;10216;42.658;23.248;2022-12-18T13:55:52;19.93;;;14.33;;
20110;SDS011;10216;42.658;23.248;2022-12-18T13:58:18;18.83;;;13.60;;
20110;SDS011;10216;42.658;23.248;2022-12-18T14:00:43;20.70;;;13.50;;
20110;SDS011;10216;42.658;23.248;2022-12-18T14:03:22;17.93;;;13.23;;
20110;SDS011;10216;42.658;23.248;2022-12-18T14:06:07;20.60;;;14.17;;
20110;SDS011;10216;42.658;23.248;2022-12-18T14:08:34;23.97;;;14.73;;
20110;SDS011;10216;42.658;23.248;2022-12-18T14:11:00;18.93;;;12.77;;
20110;SDS011;10216;42.658;23.248;2022-12-18T14:13:29;19.73;;;12.43;;
20110;SDS011;10216;42.658;23.248;2022-12-18T14:15:55;15.90;;;12.33;;
20110;SDS011;10216;42.658;23.248;2022-12-18T14:18:38;21.03;;;13.10;;
20110;SDS011;10216;42.658;23.248;2022-12-18T14:21:06;19.50;;;13.70;;
20110;SDS011;10216;42.658;23.248;2022-12-18T14:23:36;17.70;;;11.90;;
20110;SDS011;10216;42.658;23.248;2022-12-18T14:26:02;16.60;;;12.17;;
20110;SDS011;10216;42.658;23.248;2022-12-18T14:28:29;14.93;;;11.40;;
20110;SDS011;10216;42.658;23.248;2022-12-18T14:30:54;18.40;;;12.03;;
20110;SDS011;10216;42.658;23.248;2022-12-18T14:33:27;17.20;;;12.33;;
20110;SDS011;10216;42.658;23.248;2022-12-18T14:36:00;21.87;;;13.93;;
20110;SDS011;10216;42.658;23.248;2022-12-18T14:40:54;17.17;;;12.40;;
20110;SDS011;10216;42.658;23.248;2022-12-18T14:43:20;18.43;;;12.40;;
20110;SDS011;10216;42.658;23.248;2022-12-18T14:45:45;20.03;;;13.23;;
20110;SDS011;10216;42.658;23.248;2022-12-18T14:50:36;18.10;;;12.03;;
20110;SDS011;10216;42.658;23.248;2022-12-18T14:53:01;19.73;;;13.13;;
20110;SDS011;10216;42.658;23.248;2022-12-18T14:55:29;18.30;;;12.43;;
20110;SDS011;10216;42.658;23.248;2022-12-18T14:57:54;17.70;;;11.17;;
20110;SDS011;10216;42.658;23.248;2022-12-18T15:00:21;16.93;;;11.63;;
20110;SDS011;10216;42.658;23.248;2022-12-18T15:02:48;19.50;;;12.10;;
20110;SDS011;10216;42.658;23.248;2022-12-18T15:05:27;17.53;;;12.30;;
20110;SDS011;10216;42.658;23.248;2022-12-18T15:07:54;18.43;;;12.13;;
20110;SDS011;10216;42.658;23.248;2022-12-18T15:10:23;17.63;;;12.23;;
20110;SDS011;10216;42.658;23.248;2022-12-18T15:20:48;18.57;;;12.80;;
20110;SDS011;10216;42.658;23.248;2022-12-18T15:25:45;19.67;;;14.67;;
20110;SDS011;10216;42.658;23.248;2022-12-18T15:28:22;22.00;;;13.70;;
20110;SDS011;10216;42.658;23.248;2022-12-18T15:33:33;18.60;;;13.80;;
20110;SDS011;10216;42.658;23.248;2022-12-18T15:35:59;20.70;;;13.83;;
20110;SDS011;10216;42.658;23.248;2022-12-18T15:38:24;18.10;;;13.07;;
20110;SDS011;10216;42.658;23.248;2022-12-18T15:40:49;22.13;;;13.83;;
20110;SDS011;10216;42.658;23.248;2022-12-18T15:43:14;20.97;;;13.63;;
20110;SDS011;10216;42.658;23.248;2022-12-18T15:45:58;18.27;;;12.13;;
20110;SDS011;10216;42.658;23.248;2022-12-18T15:48:24;16.73;;;11.57;;
20110;SDS011;10216;42.658;23.248;2022-12-18T15:50:52;19.63;;;12.67;;
20110;SDS011;10216;42.658;23.248;2022-12-18T15:53:18;15.57;;;11.23;;
20110;SDS011;10216;42.658;23.248;2022-12-18T15:55:44;18.90;;;12.63;;
20110;SDS011;10216;42.658;23.248;2022-12-18T15:58:27;18.10;;;12.20;;
20110;SDS011;10216;42.658;23.248;2022-12-18T16:00:52;17.97;;;11.37;;
20110;SDS011;10216;42.658;23.248;2022-12-18T16:03:19;15.70;;;11.57;;
20110;SDS011;10216;42.658;23.248;2022-12-18T16:05:44;17.77;;;12.30;;
20110;SDS011;10216;42.658;23.248;2022-12-18T16:08:09;18.03;;;11.57;;
20110;SDS011;10216;42.658;23.248;2022-12-18T16:10:35;19.83;;;13.80;;
20110;SDS011;10216;42.658;23.248;2022-12-18T16:13:00;19.93;;;12.27;;
20110;SDS011;10216;42.658;23.248;2022-12-18T16:15:25;14.97;;;10.60;;
20110;SDS011;10216;42.658;23.248;2022-12-18T16:17:50;17.40;;;11.83;;
20110;SDS011;10216;42.658;23.248;2022-12-18T16:20:17;19.20;;;11.60;;
20110;SDS011;10216;42.658;23.248;2022-12-18T16:22:43;20.57;;;12.13;;